Pagrindinis puslapis
METAR-TAF:

METAR-TAF

Oro uostai :

Tanegashima, Japonija

platuma: 30-33N, ilguma: 130-57E, Aukštis: 92 m

Dabartinis oras

Ataskaita buvo paskelbta 3 valandos ir 47 minutes, ne 09:00 UTC
Vėjas 4 kt iš Šiaurės Vakarų
Temperatūra 11°C
Drėgmė 71%
Slėgis 1022 hPa
Matomumas 10 km arba daugiau
Mažai debesys ne aukštis 2500 ft
Išsisklaidę debesys ne aukštis 4000 ft

METAR: RJFG 090900Z 31004KT 9999 FEW025 SCT040 11/06 Q1022

Laikas: 21:47 (12:47 UTC)


TAF: trūkstamas

Orai ataskaitas ir orų prognozės (METAR, TAF).

turimą stotys yra geltonos ir raudonos taškus žemėlapyje.

Perkelti pele per norėdami pamatyti stoties vardą.

Tada spustelėkite, norėdami matyti oro stebėjimo ir prognozės.

Norėdami pakeisti žemėlapį: spustelėkite ant žalios mygtukų su juodo kryžiaus žemyn,; žalią mygtuką su brūkšneliu, jei norite nutolinti; arba žalių rodyklių gretimoms žemėlapius.


METAR-TAF: